sensor_id;sensor_type;location;lat;lon;timestamp;P1;durP1;ratioP1;P2;durP2;ratioP2
21281;SDS011;10800;53.096;18.328;2022-09-09T00:07:43;9.20;;;4.63;;
21281;SDS011;10800;53.096;18.328;2022-09-09T00:13:37;18.17;;;7.97;;
21281;SDS011;10800;53.096;18.328;2022-09-09T00:19:00;9.73;;;4.77;;
21281;SDS011;10800;53.096;18.328;2022-09-09T00:23:35;9.93;;;4.83;;
21281;SDS011;10800;53.096;18.328;2022-09-09T00:28:48;8.73;;;5.63;;
21281;SDS011;10800;53.096;18.328;2022-09-09T00:34:11;9.17;;;5.30;;
21281;SDS011;10800;53.096;18.328;2022-09-09T00:39:32;10.47;;;5.23;;
21281;SDS011;10800;53.096;18.328;2022-09-09T00:50:44;12.47;;;5.63;;
21281;SDS011;10800;53.096;18.328;2022-09-09T00:55:49;9.23;;;4.87;;
21281;SDS011;10800;53.096;18.328;2022-09-09T01:01:03;7.90;;;4.97;;
21281;SDS011;10800;53.096;18.328;2022-09-09T01:17:19;13.27;;;5.37;;
21281;SDS011;10800;53.096;18.328;2022-09-09T01:22:34;11.73;;;5.67;;
21281;SDS011;10800;53.096;18.328;2022-09-09T01:27:45;16.43;;;5.83;;
21281;SDS011;10800;53.096;18.328;2022-09-09T01:32:55;8.80;;;5.10;;
21281;SDS011;10800;53.096;18.328;2022-09-09T01:38:06;9.70;;;5.60;;
21281;SDS011;10800;53.096;18.328;2022-09-09T01:43:13;14.13;;;5.23;;
21281;SDS011;10800;53.096;18.328;2022-09-09T01:48:18;8.53;;;5.30;;
21281;SDS011;10800;53.096;18.328;2022-09-09T01:53:25;10.17;;;5.90;;
21281;SDS011;10800;53.096;18.328;2022-09-09T01:58:39;13.77;;;5.67;;
21281;SDS011;10800;53.096;18.328;2022-09-09T02:03:47;10.27;;;5.77;;
21281;SDS011;10800;53.096;18.328;2022-09-09T02:08:59;11.30;;;6.07;;
21281;SDS011;10800;53.096;18.328;2022-09-09T02:14:08;11.73;;;6.07;;
21281;SDS011;10800;53.096;18.328;2022-09-09T02:19:19;10.70;;;6.87;;
21281;SDS011;10800;53.096;18.328;2022-09-09T02:24:33;8.10;;;5.77;;
21281;SDS011;10800;53.096;18.328;2022-09-09T02:29:44;8.80;;;6.93;;
21281;SDS011;10800;53.096;18.328;2022-09-09T02:34:56;12.77;;;6.47;;
21281;SDS011;10800;53.096;18.328;2022-09-09T02:40:05;11.87;;;7.40;;
21281;SDS011;10800;53.096;18.328;2022-09-09T02:45:29;11.77;;;7.47;;
21281;SDS011;10800;53.096;18.328;2022-09-09T02:50:36;9.80;;;7.90;;
21281;SDS011;10800;53.096;18.328;2022-09-09T02:55:48;11.83;;;7.83;;
21281;SDS011;10800;53.096;18.328;2022-09-09T03:01:01;11.03;;;7.93;;
21281;SDS011;10800;53.096;18.328;2022-09-09T03:06:10;10.03;;;7.23;;
21281;SDS011;10800;53.096;18.328;2022-09-09T03:11:17;12.30;;;8.10;;
21281;SDS011;10800;53.096;18.328;2022-09-09T03:16:26;10.63;;;7.10;;
21281;SDS011;10800;53.096;18.328;2022-09-09T03:21:36;10.10;;;7.13;;
21281;SDS011;10800;53.096;18.328;2022-09-09T03:26:45;15.77;;;7.20;;
21281;SDS011;10800;53.096;18.328;2022-09-09T03:31:58;11.80;;;7.17;;
21281;SDS011;10800;53.096;18.328;2022-09-09T03:37:09;9.70;;;6.70;;
21281;SDS011;10800;53.096;18.328;2022-09-09T03:42:15;8.80;;;6.47;;
21281;SDS011;10800;53.096;18.328;2022-09-09T03:47:29;12.03;;;6.57;;
21281;SDS011;10800;53.096;18.328;2022-09-09T03:52:37;12.87;;;6.83;;
21281;SDS011;10800;53.096;18.328;2022-09-09T03:57:56;12.90;;;6.70;;
21281;SDS011;10800;53.096;18.328;2022-09-09T04:03:05;12.57;;;7.47;;
21281;SDS011;10800;53.096;18.328;2022-09-09T04:08:25;10.03;;;7.50;;
21281;SDS011;10800;53.096;18.328;2022-09-09T04:13:33;10.93;;;7.03;;
21281;SDS011;10800;53.096;18.328;2022-09-09T04:18:43;11.60;;;6.93;;
21281;SDS011;10800;53.096;18.328;2022-09-09T04:23:49;14.77;;;7.40;;
21281;SDS011;10800;53.096;18.328;2022-09-09T04:28:54;10.27;;;6.57;;
21281;SDS011;10800;53.096;18.328;2022-09-09T04:34:00;13.40;;;7.57;;
21281;SDS011;10800;53.096;18.328;2022-09-09T04:39:08;12.80;;;7.77;;
21281;SDS011;10800;53.096;18.328;2022-09-09T04:44:20;11.97;;;6.97;;
21281;SDS011;10800;53.096;18.328;2022-09-09T04:49:25;13.93;;;8.13;;
21281;SDS011;10800;53.096;18.328;2022-09-09T04:54:30;20.93;;;12.17;;
21281;SDS011;10800;53.096;18.328;2022-09-09T04:59:36;19.37;;;10.27;;
21281;SDS011;10800;53.096;18.328;2022-09-09T05:04:43;16.60;;;9.37;;
21281;SDS011;10800;53.096;18.328;2022-09-09T05:09:51;17.73;;;9.67;;
21281;SDS011;10800;53.096;18.328;2022-09-09T05:14:57;16.27;;;10.37;;
21281;SDS011;10800;53.096;18.328;2022-09-09T05:20:14;23.40;;;11.17;;
21281;SDS011;10800;53.096;18.328;2022-09-09T05:25:21;22.40;;;10.57;;
21281;SDS011;10800;53.096;18.328;2022-09-09T05:30:33;25.77;;;11.73;;
21281;SDS011;10800;53.096;18.328;2022-09-09T05:35:40;21.63;;;10.93;;
21281;SDS011;10800;53.096;18.328;2022-09-09T05:40:47;22.17;;;10.80;;
21281;SDS011;10800;53.096;18.328;2022-09-09T05:46:00;20.40;;;11.80;;
21281;SDS011;10800;53.096;18.328;2022-09-09T05:51:17;24.10;;;11.57;;
21281;SDS011;10800;53.096;18.328;2022-09-09T05:56:28;17.10;;;11.00;;
21281;SDS011;10800;53.096;18.328;2022-09-09T06:01:37;30.37;;;12.80;;
21281;SDS011;10800;53.096;18.328;2022-09-09T06:06:47;20.97;;;12.10;;
21281;SDS011;10800;53.096;18.328;2022-09-09T06:11:54;28.87;;;12.87;;
21281;SDS011;10800;53.096;18.328;2022-09-09T06:17:05;24.43;;;12.77;;
21281;SDS011;10800;53.096;18.328;2022-09-09T06:22:13;27.10;;;13.20;;
21281;SDS011;10800;53.096;18.328;2022-09-09T06:27:19;25.40;;;13.47;;
21281;SDS011;10800;53.096;18.328;2022-09-09T06:32:25;32.90;;;13.87;;
21281;SDS011;10800;53.096;18.328;2022-09-09T06:37:31;27.27;;;13.60;;
21281;SDS011;10800;53.096;18.328;2022-09-09T06:42:38;29.87;;;14.70;;
21281;SDS011;10800;53.096;18.328;2022-09-09T06:47:46;30.20;;;14.47;;
21281;SDS011;10800;53.096;18.328;2022-09-09T06:52:53;32.60;;;14.33;;
21281;SDS011;10800;53.096;18.328;2022-09-09T06:57:58;35.20;;;14.10;;
21281;SDS011;10800;53.096;18.328;2022-09-09T07:03:03;33.80;;;16.27;;
21281;SDS011;10800;53.096;18.328;2022-09-09T07:08:12;35.93;;;15.07;;
21281;SDS011;10800;53.096;18.328;2022-09-09T07:13:23;33.13;;;15.87;;
21281;SDS011;10800;53.096;18.328;2022-09-09T07:18:30;29.97;;;15.30;;
21281;SDS011;10800;53.096;18.328;2022-09-09T07:23:37;35.73;;;16.00;;
21281;SDS011;10800;53.096;18.328;2022-09-09T07:28:43;38.60;;;16.07;;
21281;SDS011;10800;53.096;18.328;2022-09-09T07:33:49;30.97;;;15.57;;
21281;SDS011;10800;53.096;18.328;2022-09-09T07:38:55;36.87;;;16.23;;
21281;SDS011;10800;53.096;18.328;2022-09-09T07:44:04;29.37;;;15.27;;
21281;SDS011;10800;53.096;18.328;2022-09-09T07:49:14;30.83;;;15.73;;
21281;SDS011;10800;53.096;18.328;2022-09-09T07:54:42;36.37;;;16.33;;
21281;SDS011;10800;53.096;18.328;2022-09-09T07:59:50;37.17;;;15.97;;
21281;SDS011;10800;53.096;18.328;2022-09-09T08:04:56;37.17;;;16.60;;
21281;SDS011;10800;53.096;18.328;2022-09-09T08:10:02;37.50;;;17.47;;
21281;SDS011;10800;53.096;18.328;2022-09-09T08:15:10;42.03;;;17.27;;
21281;SDS011;10800;53.096;18.328;2022-09-09T08:20:17;36.37;;;17.20;;
21281;SDS011;10800;53.096;18.328;2022-09-09T08:25:22;33.87;;;17.13;;
21281;SDS011;10800;53.096;18.328;2022-09-09T08:30:27;34.53;;;17.47;;
21281;SDS011;10800;53.096;18.328;2022-09-09T08:35:37;39.20;;;17.70;;
21281;SDS011;10800;53.096;18.328;2022-09-09T08:40:47;38.90;;;18.10;;
21281;SDS011;10800;53.096;18.328;2022-09-09T08:51:17;39.10;;;17.80;;
21281;SDS011;10800;53.096;18.328;2022-09-09T08:56:24;41.47;;;19.17;;
21281;SDS011;10800;53.096;18.328;2022-09-09T09:01:46;34.20;;;17.47;;
21281;SDS011;10800;53.096;18.328;2022-09-09T09:07:53;44.60;;;20.23;;
21281;SDS011;10800;53.096;18.328;2022-09-09T09:12:20;43.10;;;19.77;;
21281;SDS011;10800;53.096;18.328;2022-09-09T09:17:28;39.47;;;19.57;;
21281;SDS011;10800;53.096;18.328;2022-09-09T09:22:42;41.50;;;19.23;;
21281;SDS011;10800;53.096;18.328;2022-09-09T09:33:20;43.30;;;21.97;;
21281;SDS011;10800;53.096;18.328;2022-09-09T09:38:25;49.17;;;21.57;;
21281;SDS011;10800;53.096;18.328;2022-09-09T09:43:35;38.93;;;19.60;;
21281;SDS011;10800;53.096;18.328;2022-09-09T09:48:42;46.60;;;20.57;;
21281;SDS011;10800;53.096;18.328;2022-09-09T09:53:49;49.17;;;22.30;;
21281;SDS011;10800;53.096;18.328;2022-09-09T09:58:56;47.23;;;21.63;;
21281;SDS011;10800;53.096;18.328;2022-09-09T10:04:18;40.83;;;22.30;;
21281;SDS011;10800;53.096;18.328;2022-09-09T10:09:28;44.67;;;22.47;;
21281;SDS011;10800;53.096;18.328;2022-09-09T10:14:54;49.37;;;22.70;;
21281;SDS011;10800;53.096;18.328;2022-09-09T10:31:18;46.63;;;23.47;;
21281;SDS011;10800;53.096;18.328;2022-09-09T10:36:44;51.37;;;22.27;;
21281;SDS011;10800;53.096;18.328;2022-09-09T10:42:06;46.73;;;22.53;;
21281;SDS011;10800;53.096;18.328;2022-09-09T10:52:54;43.43;;;21.97;;
21281;SDS011;10800;53.096;18.328;2022-09-09T10:58:04;43.30;;;21.00;;
21281;SDS011;10800;53.096;18.328;2022-09-09T11:03:15;41.13;;;20.60;;
21281;SDS011;10800;53.096;18.328;2022-09-09T11:24:27;41.90;;;21.17;;
21281;SDS011;10800;53.096;18.328;2022-09-09T11:40:53;34.53;;;16.80;;
21281;SDS011;10800;53.096;18.328;2022-09-09T11:46:05;31.27;;;16.13;;
21281;SDS011;10800;53.096;18.328;2022-09-09T11:56:26;27.17;;;15.13;;
21281;SDS011;10800;53.096;18.328;2022-09-09T12:06:48;33.73;;;17.87;;
21281;SDS011;10800;53.096;18.328;2022-09-09T12:17:20;27.00;;;15.07;;
21281;SDS011;10800;53.096;18.328;2022-09-09T12:28:09;25.43;;;13.57;;
21281;SDS011;10800;53.096;18.328;2022-09-09T12:33:17;28.25;;;14.20;;
21281;SDS011;10800;53.096;18.328;2022-09-09T12:43:47;25.50;;;13.10;;
21281;SDS011;10800;53.096;18.328;2022-09-09T12:48:54;19.50;;;11.73;;
21281;SDS011;10800;53.096;18.328;2022-09-09T12:54:00;22.93;;;12.77;;
21281;SDS011;10800;53.096;18.328;2022-09-09T12:59:17;21.07;;;13.27;;
21281;SDS011;10800;53.096;18.328;2022-09-09T13:04:19;22.70;;;13.27;;
21281;SDS011;10800;53.096;18.328;2022-09-09T13:09:23;25.47;;;14.03;;
21281;SDS011;10800;53.096;18.328;2022-09-09T13:14:30;21.37;;;12.53;;
21281;SDS011;10800;53.096;18.328;2022-09-09T13:19:44;24.03;;;13.17;;
21281;SDS011;10800;53.096;18.328;2022-09-09T13:24:57;19.55;;;12.13;;
21281;SDS011;10800;53.096;18.328;2022-09-09T13:30:24;22.63;;;12.63;;
21281;SDS011;10800;53.096;18.328;2022-09-09T13:35:27;23.37;;;13.40;;
21281;SDS011;10800;53.096;18.328;2022-09-09T13:40:32;18.80;;;11.87;;
21281;SDS011;10800;53.096;18.328;2022-09-09T13:50:58;22.22;;;11.80;;
21281;SDS011;10800;53.096;18.328;2022-09-09T13:56:09;23.20;;;12.75;;
21281;SDS011;10800;53.096;18.328;2022-09-09T14:01:14;26.60;;;12.93;;
21281;SDS011;10800;53.096;18.328;2022-09-09T14:06:20;19.87;;;11.63;;
21281;SDS011;10800;53.096;18.328;2022-09-09T14:11:25;21.53;;;11.73;;
21281;SDS011;10800;53.096;18.328;2022-09-09T14:16:31;19.23;;;12.25;;
21281;SDS011;10800;53.096;18.328;2022-09-09T14:21:36;21.13;;;11.70;;
21281;SDS011;10800;53.096;18.328;2022-09-09T14:26:42;18.02;;;11.65;;
21281;SDS011;10800;53.096;18.328;2022-09-09T14:31:48;22.50;;;13.00;;
21281;SDS011;10800;53.096;18.328;2022-09-09T14:36:53;26.90;;;13.97;;
21281;SDS011;10800;53.096;18.328;2022-09-09T14:41:59;26.40;;;13.13;;
21281;SDS011;10800;53.096;18.328;2022-09-09T14:47:06;28.13;;;13.80;;
21281;SDS011;10800;53.096;18.328;2022-09-09T14:52:16;25.85;;;14.07;;
21281;SDS011;10800;53.096;18.328;2022-09-09T14:57:21;27.87;;;14.87;;
21281;SDS011;10800;53.096;18.328;2022-09-09T15:02:26;24.98;;;14.75;;
21281;SDS011;10800;53.096;18.328;2022-09-09T15:07:33;27.30;;;14.67;;
21281;SDS011;10800;53.096;18.328;2022-09-09T15:12:39;29.70;;;17.13;;
21281;SDS011;10800;53.096;18.328;2022-09-09T15:17:49;30.45;;;18.17;;
21281;SDS011;10800;53.096;18.328;2022-09-09T15:22:54;30.97;;;17.37;;
21281;SDS011;10800;53.096;18.328;2022-09-09T15:28:05;27.47;;;15.77;;
21281;SDS011;10800;53.096;18.328;2022-09-09T15:33:12;30.87;;;15.73;;
21281;SDS011;10800;53.096;18.328;2022-09-09T15:38:17;24.80;;;15.23;;
21281;SDS011;10800;53.096;18.328;2022-09-09T15:43:23;26.97;;;14.77;;
21281;SDS011;10800;53.096;18.328;2022-09-09T15:48:32;26.43;;;14.33;;
21281;SDS011;10800;53.096;18.328;2022-09-09T15:53:37;30.40;;;14.33;;
21281;SDS011;10800;53.096;18.328;2022-09-09T15:58:43;172.10;;;156.20;;
21281;SDS011;10800;53.096;18.328;2022-09-09T16:03:49;142.30;;;127.10;;
21281;SDS011;10800;53.096;18.328;2022-09-09T16:08:56;275.83;;;179.00;;
21281;SDS011;10800;53.096;18.328;2022-09-09T16:14:05;140.67;;;111.03;;
21281;SDS011;10800;53.096;18.328;2022-09-09T16:19:13;47.13;;;23.07;;
21281;SDS011;10800;53.096;18.328;2022-09-09T16:24:22;210.80;;;147.17;;
21281;SDS011;10800;53.096;18.328;2022-09-09T16:29:34;38.83;;;25.83;;
21281;SDS011;10800;53.096;18.328;2022-09-09T16:34:39;94.30;;;65.07;;
21281;SDS011;10800;53.096;18.328;2022-09-09T16:39:46;271.30;;;152.67;;
21281;SDS011;10800;53.096;18.328;2022-09-09T16:44:51;114.00;;;69.00;;
21281;SDS011;10800;53.096;18.328;2022-09-09T16:49:56;88.40;;;49.77;;
21281;SDS011;10800;53.096;18.328;2022-09-09T16:55:01;108.73;;;50.00;;
21281;SDS011;10800;53.096;18.328;2022-09-09T17:00:07;37.93;;;25.37;;
21281;SDS011;10800;53.096;18.328;2022-09-09T17:05:14;36.87;;;21.47;;
21281;SDS011;10800;53.096;18.328;2022-09-09T17:10:19;34.13;;;20.00;;
21281;SDS011;10800;53.096;18.328;2022-09-09T17:15:27;32.67;;;19.20;;
21281;SDS011;10800;53.096;18.328;2022-09-09T17:20:35;33.90;;;18.97;;
21281;SDS011;10800;53.096;18.328;2022-09-09T17:25:44;28.20;;;18.27;;
21281;SDS011;10800;53.096;18.328;2022-09-09T17:30:52;30.80;;;17.70;;
21281;SDS011;10800;53.096;18.328;2022-09-09T17:36:13;30.73;;;17.70;;
21281;SDS011;10800;53.096;18.328;2022-09-09T17:41:16;30.97;;;18.17;;
21281;SDS011;10800;53.096;18.328;2022-09-09T17:46:27;33.10;;;18.87;;
21281;SDS011;10800;53.096;18.328;2022-09-09T17:51:35;34.27;;;17.20;;
21281;SDS011;10800;53.096;18.328;2022-09-09T17:56:41;34.07;;;18.57;;
21281;SDS011;10800;53.096;18.328;2022-09-09T18:01:48;33.93;;;17.67;;
21281;SDS011;10800;53.096;18.328;2022-09-09T18:06:53;28.57;;;16.47;;
21281;SDS011;10800;53.096;18.328;2022-09-09T18:12:00;33.93;;;19.67;;
21281;SDS011;10800;53.096;18.328;2022-09-09T18:17:05;29.23;;;17.33;;
21281;SDS011;10800;53.096;18.328;2022-09-09T18:22:11;28.17;;;16.30;;
21281;SDS011;10800;53.096;18.328;2022-09-09T18:27:16;31.87;;;17.87;;
21281;SDS011;10800;53.096;18.328;2022-09-09T18:32:22;32.27;;;17.63;;
21281;SDS011;10800;53.096;18.328;2022-09-09T18:37:29;32.13;;;18.90;;
21281;SDS011;10800;53.096;18.328;2022-09-09T18:42:36;33.90;;;18.80;;
21281;SDS011;10800;53.096;18.328;2022-09-09T18:47:46;34.73;;;20.63;;
21281;SDS011;10800;53.096;18.328;2022-09-09T18:58:31;30.43;;;19.27;;
21281;SDS011;10800;53.096;18.328;2022-09-09T19:03:38;37.63;;;22.27;;
21281;SDS011;10800;53.096;18.328;2022-09-09T19:08:47;37.37;;;22.20;;
21281;SDS011;10800;53.096;18.328;2022-09-09T19:13:58;38.40;;;22.60;;
21281;SDS011;10800;53.096;18.328;2022-09-09T19:19:06;41.03;;;24.13;;
21281;SDS011;10800;53.096;18.328;2022-09-09T19:24:14;35.07;;;21.10;;
21281;SDS011;10800;53.096;18.328;2022-09-09T19:29:23;41.97;;;21.97;;
21281;SDS011;10800;53.096;18.328;2022-09-09T19:34:30;38.37;;;22.20;;
21281;SDS011;10800;53.096;18.328;2022-09-09T19:39:37;36.97;;;22.43;;
21281;SDS011;10800;53.096;18.328;2022-09-09T19:44:44;39.63;;;24.93;;
21281;SDS011;10800;53.096;18.328;2022-09-09T19:49:53;47.60;;;26.57;;
21281;SDS011;10800;53.096;18.328;2022-09-09T19:54:58;44.27;;;27.00;;
21281;SDS011;10800;53.096;18.328;2022-09-09T20:00:04;52.50;;;29.43;;
21281;SDS011;10800;53.096;18.328;2022-09-09T20:05:11;50.20;;;30.20;;
21281;SDS011;10800;53.096;18.328;2022-09-09T20:10:16;64.47;;;32.23;;
21281;SDS011;10800;53.096;18.328;2022-09-09T20:15:21;55.43;;;31.53;;
21281;SDS011;10800;53.096;18.328;2022-09-09T20:20:27;56.07;;;32.13;;
21281;SDS011;10800;53.096;18.328;2022-09-09T20:25:34;62.60;;;31.10;;
21281;SDS011;10800;53.096;18.328;2022-09-09T20:30:40;56.80;;;31.50;;
21281;SDS011;10800;53.096;18.328;2022-09-09T20:35:45;58.63;;;31.30;;
21281;SDS011;10800;53.096;18.328;2022-09-09T20:40:52;53.63;;;30.87;;
21281;SDS011;10800;53.096;18.328;2022-09-09T20:46:02;57.77;;;31.47;;
21281;SDS011;10800;53.096;18.328;2022-09-09T20:51:07;62.27;;;32.17;;
21281;SDS011;10800;53.096;18.328;2022-09-09T20:56:13;66.97;;;33.57;;
21281;SDS011;10800;53.096;18.328;2022-09-09T21:01:20;65.80;;;35.63;;
21281;SDS011;10800;53.096;18.328;2022-09-09T21:06:25;62.37;;;34.30;;
21281;SDS011;10800;53.096;18.328;2022-09-09T21:11:31;59.27;;;32.63;;
21281;SDS011;10800;53.096;18.328;2022-09-09T21:16:37;61.33;;;33.67;;
21281;SDS011;10800;53.096;18.328;2022-09-09T21:21:42;63.57;;;34.03;;
21281;SDS011;10800;53.096;18.328;2022-09-09T21:26:49;63.97;;;32.13;;
21281;SDS011;10800;53.096;18.328;2022-09-09T21:31:56;55.90;;;32.37;;
21281;SDS011;10800;53.096;18.328;2022-09-09T21:37:03;60.27;;;33.17;;
21281;SDS011;10800;53.096;18.328;2022-09-09T21:42:09;63.87;;;33.13;;
21281;SDS011;10800;53.096;18.328;2022-09-09T21:47:16;65.70;;;32.90;;
21281;SDS011;10800;53.096;18.328;2022-09-09T21:52:21;65.70;;;31.53;;
21281;SDS011;10800;53.096;18.328;2022-09-09T21:57:27;65.87;;;32.27;;
21281;SDS011;10800;53.096;18.328;2022-09-09T22:02:32;57.60;;;30.77;;
21281;SDS011;10800;53.096;18.328;2022-09-09T22:07:39;61.60;;;31.03;;
21281;SDS011;10800;53.096;18.328;2022-09-09T22:12:45;56.43;;;29.87;;
21281;SDS011;10800;53.096;18.328;2022-09-09T22:17:51;66.87;;;32.60;;
21281;SDS011;10800;53.096;18.328;2022-09-09T22:22:58;57.73;;;30.73;;
21281;SDS011;10800;53.096;18.328;2022-09-09T22:28:05;64.80;;;31.50;;
21281;SDS011;10800;53.096;18.328;2022-09-09T22:33:12;66.57;;;32.03;;
21281;SDS011;10800;53.096;18.328;2022-09-09T22:38:17;67.17;;;33.10;;
21281;SDS011;10800;53.096;18.328;2022-09-09T22:43:22;67.90;;;32.63;;
21281;SDS011;10800;53.096;18.328;2022-09-09T22:48:34;77.33;;;35.57;;
21281;SDS011;10800;53.096;18.328;2022-09-09T22:53:42;73.53;;;35.67;;
21281;SDS011;10800;53.096;18.328;2022-09-09T22:58:51;72.50;;;34.43;;
21281;SDS011;10800;53.096;18.328;2022-09-09T23:03:58;81.70;;;36.40;;
21281;SDS011;10800;53.096;18.328;2022-09-09T23:09:05;69.63;;;34.97;;
21281;SDS011;10800;53.096;18.328;2022-09-09T23:14:10;77.83;;;36.53;;
21281;SDS011;10800;53.096;18.328;2022-09-09T23:19:16;83.00;;;38.70;;
21281;SDS011;10800;53.096;18.328;2022-09-09T23:24:23;78.63;;;36.13;;
21281;SDS011;10800;53.096;18.328;2022-09-09T23:29:28;73.30;;;34.53;;
21281;SDS011;10800;53.096;18.328;2022-09-09T23:34:34;77.47;;;35.20;;
21281;SDS011;10800;53.096;18.328;2022-09-09T23:39:40;82.40;;;36.17;;
21281;SDS011;10800;53.096;18.328;2022-09-09T23:44:45;80.23;;;35.80;;
21281;SDS011;10800;53.096;18.328;2022-09-09T23:49:51;85.97;;;36.30;;
21281;SDS011;10800;53.096;18.328;2022-09-09T23:54:56;81.90;;;35.13;;
